Time;durP1;ratioP1;P1;durP2;ratioP2;P2;SDS_P1;SDS_P2;PMS_P1;PMS_P2;Temp;Humidity;BMP_temperature;BMP_pressure;BME280_temperature;BME280_humidity;BME280_pressure;Samples;Min_cycle;Max_cycle;Signal;HPM_P1;HPM_P2
2022/07/01 00:00:35;;;;;;;;;;;;;;;;;;5074977;28;19960;-68
2022/07/01 00:03:00;;;;;;;;;;;;;;;;;;5074373;28;19958;-68
2022/07/01 00:05:26;;;;;;;;;;;;;;;;;;5075169;28;19969;-68
2022/07/01 00:07:52;;;;;;;;;;;;;;;;;;5074798;28;20011;-68
2022/07/01 00:10:19;;;;;;;;;;;;;;;;;;5074141;28;20021;-68
2022/07/01 00:12:46;;;;;;;;;;;;;;;;;;5074970;28;19970;-68
2022/07/01 00:15:12;;;;;;;;;;;;;;;;;;5074948;28;19942;-68
2022/07/01 00:17:39;;;;;;;;;;;;;;;;;;5074139;28;19924;-68
2022/07/01 00:20:05;;;;;;;;;;;;;;;;;;5074716;28;20416;-68
2022/07/01 00:22:31;;;;;;;;;;;;;;;;;;5074809;28;19924;-68
2022/07/01 00:24:57;;;;;;;;;;;;;;;;;;5074201;28;20256;-68
2022/07/01 00:27:23;;;;;;;;;;;;;;;;;;5092671;28;20521;-68
2022/07/01 00:29:49;;;;;;;;;;;;;;;;;;5094652;28;19927;-68
2022/07/01 00:32:15;;;;;;;;;;;;;;;;;;5093825;28;19943;-68
2022/07/01 00:34:41;;;;;;;;;;;;;;;;;;5094855;28;19971;-68
2022/07/01 00:37:07;;;;;;;;;;;;;;;;;;5094752;28;19920;-68
2022/07/01 00:39:35;;;;;;;;;;;;;;;;;;5093815;28;19924;-68
2022/07/01 00:42:01;;;;;;;;;;;;;;;;;;5094316;28;20379;-68
2022/07/01 00:44:27;;;;;;;;;;;;;;;;;;5092750;28;19924;-68
2022/07/01 00:46:53;;;;;;;;;;;;;;;;;;5093376;28;19928;-68
2022/07/01 00:49:19;;;;;;;;;;;;;;;;;;5094429;28;19920;-68
2022/07/01 00:51:45;;;;;;;;;;;;;;;;;;5094117;28;19942;-68
2022/07/01 00:54:11;;;;;;;;;;;;;;;;;;5093741;28;20325;-68
2022/07/01 00:56:37;;;;;;;;;;;;;;;;;;5094278;28;20488;-68
2022/07/01 00:59:03;;;;;;;;;;;;;;;;;;5094188;28;19928;-68
2022/07/01 01:01:29;;;;;;;;;;;;;;;;;;5093425;28;19952;-68
2022/07/01 01:03:55;;;;;;;;;;;;;;;;;;5094052;28;19920;-68
2022/07/01 01:06:21;;;;;;;;;;;;;;;;;;5094138;28;19920;-68
2022/07/01 01:08:48;;;;;;;;;;;;;;;;;;5093273;28;20022;-68
2022/07/01 01:11:14;;;;;;;;;;;;;;;;;;5093700;28;19927;-68
2022/07/01 01:13:40;;;;;;;;;;;;;;;;;;5093936;28;20018;-68
2022/07/01 01:16:07;;;;;;;;;;;;;;;;;;5092584;28;19920;-68
2022/07/01 01:18:33;;;;;;;;;;;;;;;;;;5093813;28;19973;-68
2022/07/01 01:20:59;;;;;;;;;;;;;;;;;;5093762;28;19927;-68
2022/07/01 01:23:25;;;;;;;;;;;;;;;;;;5093051;28;19920;-68
2022/07/01 01:25:51;;;;;;;;;;;;;;;;;;5087685;28;20398;-68
2022/07/01 01:28:17;;;;;;;;;;;;;;;;;;5073349;28;20011;-68
2022/07/01 01:30:43;;;;;;;;;;;;;;;;;;5072563;28;19924;-68
2022/07/01 01:33:11;;;;;;;;;;;;;;;;;;5073432;28;19920;-68
2022/07/01 01:35:37;;;;;;;;;;;;;;;;;;5073387;28;19970;-68
2022/07/01 01:38:03;;;;;;;;;;;;;;;;;;5071495;28;19921;-68
2022/07/01 01:40:29;;;;;;;;;;;;;;;;;;5072974;28;19928;-68
2022/07/01 01:42:55;;;;;;;;;;;;;;;;;;5072824;28;19935;-68
2022/07/01 01:45:21;;;;;;;;;;;;;;;;;;5072272;28;20272;-68
2022/07/01 01:47:47;;;;;;;;;;;;;;;;;;5073097;28;20027;-68
2022/07/01 01:50:13;;;;;;;;;;;;;;;;;;5072886;28;20007;-68
2022/07/01 01:52:42;;;;;;;;;;;;;;;;;;5072149;28;20011;-68
2022/07/01 01:55:08;;;;;;;;;;;;;;;;;;5073172;28;19920;-68
2022/07/01 01:57:34;;;;;;;;;;;;;;;;;;5072931;28;19991;-68
2022/07/01 02:00:00;;;;;;;;;;;;;;;;;;5071009;28;20047;-68
2022/07/01 02:02:26;;;;;;;;;;;;;;;;;;5072821;28;19951;-68
2022/07/01 02:04:52;;;;;;;;;;;;;;;;;;5072509;28;19967;-68
2022/07/01 02:07:18;;;;;;;;;;;;;;;;;;5072154;28;20029;-68
2022/07/01 02:09:44;;;;;;;;;;;;;;;;;;5072644;28;19920;-68
2022/07/01 02:12:10;;;;;;;;;;;;;;;;;;5072522;28;19970;-68
2022/07/01 02:14:36;;;;;;;;;;;;;;;;;;5071873;28;19925;-68
2022/07/01 02:17:02;;;;;;;;;;;;;;;;;;5072611;28;19921;-68
2022/07/01 02:19:28;;;;;;;;;;;;;;;;;;5072724;28;20392;-68
2022/07/01 02:21:54;;;;;;;;;;;;;;;;;;5071891;28;19921;-68
2022/07/01 02:24:21;;;;;;;;;;;;;;;;;;5071072;28;19924;-68
2022/07/01 02:26:47;;;;;;;;;;;;;;;;;;5086049;28;19931;-68
2022/07/01 02:29:13;;;;;;;;;;;;;;;;;;5092361;28;20378;-68
2022/07/01 02:31:39;;;;;;;;;;;;;;;;;;5092135;28;19920;-68
2022/07/01 02:34:05;;;;;;;;;;;;;;;;;;5092597;28;19920;-68
2022/07/01 02:36:31;;;;;;;;;;;;;;;;;;5092632;28;19977;-68
2022/07/01 02:38:58;;;;;;;;;;;;;;;;;;5091925;28;20243;-68
2022/07/01 02:41:23;;;;;;;;;;;;;;;;;;5092403;28;19920;-68
2022/07/01 02:43:49;;;;;;;;;;;;;;;;;;5092091;28;20465;-68
2022/07/01 02:46:15;;;;;;;;;;;;;;;;;;5091857;28;19923;-68
2022/07/01 02:48:41;;;;;;;;;;;;;;;;;;5090804;28;19920;-68
2022/07/01 02:51:07;;;;;;;;;;;;;;;;;;5090723;28;19942;-68
2022/07/01 02:53:33;;;;;;;;;;;;;;;;;;5090224;28;19920;-68
2022/07/01 02:55:59;;;;;;;;;;;;;;;;;;5092287;28;19920;-68
2022/07/01 02:58:26;;;;;;;;;;;;;;;;;;5092292;28;20053;-68
2022/07/01 03:00:52;;;;;;;;;;;;;;;;;;5091423;28;19928;-68
2022/07/01 03:03:19;;;;;;;;;;;;;;;;;;5092107;28;20298;-68
2022/07/01 03:05:46;;;;;;;;;;;;;;;;;;5091873;28;19927;-68
2022/07/01 03:08:12;;;;;;;;;;;;;;;;;;5091420;28;19970;-68
2022/07/01 03:10:38;;;;;;;;;;;;;;;;;;5092032;28;19963;-68
2022/07/01 03:13:04;;;;;;;;;;;;;;;;;;5091885;28;19943;-68
2022/07/01 03:15:30;;;;;;;;;;;;;;;;;;5091659;28;20089;-68
2022/07/01 03:17:56;;;;;;;;;;;;;;;;;;5092115;28;19927;-68
2022/07/01 03:20:22;;;;;;;;;;;;;;;;;;5091757;28;19924;-69
2022/07/01 03:22:49;;;;;;;;;;;;;;;;;;5091472;28;19920;-68
2022/07/01 03:25:15;;;;;;;;;;;;;;;;;;5091101;28;20363;-68
2022/07/01 03:27:45;;;;;;;;;;;;;;;;;;5071866;28;19956;-68
2022/07/01 03:30:10;;;;;;;;;;;;;;;;;;5071128;28;20021;-68
2022/07/01 03:32:36;;;;;;;;;;;;;;;;;;5071787;28;19963;-68
2022/07/01 03:35:35;;;;;;;;;;;;;;;;;;5071574;28;19924;-68
2022/07/01 03:37:48;;;;;;;;;;;;;;;;;;5070721;28;19921;-68
2022/07/01 03:40:14;;;;;;;;;;;;;;;;;;5071535;28;19931;-68
2022/07/01 03:42:40;;;;;;;;;;;;;;;;;;5071162;28;19956;-68
2022/07/01 03:45:06;;;;;;;;;;;;;;;;;;5070893;28;20033;-68
2022/07/01 03:47:32;;;;;;;;;;;;;;;;;;5071530;28;19924;-68
2022/07/01 03:49:58;;;;;;;;;;;;;;;;;;5071516;28;19985;-68
2022/07/01 03:52:24;;;;;;;;;;;;;;;;;;5070802;28;19921;-68
2022/07/01 03:54:50;;;;;;;;;;;;;;;;;;5071445;28;19955;-68
2022/07/01 03:57:16;;;;;;;;;;;;;;;;;;5071260;28;19920;-68
2022/07/01 03:59:42;;;;;;;;;;;;;;;;;;5070943;28;19929;-68
2022/07/01 04:02:08;;;;;;;;;;;;;;;;;;5073856;28;19924;-68
2022/07/01 04:04:34;;;;;;;;;;;;;;;;;;5074769;28;19990;-68
2022/07/01 04:07:00;;;;;;;;;;;;;;;;;;5074534;28;20347;-68
2022/07/01 04:09:26;;;;;;;;;;;;;;;;;;5073478;28;20030;-68
2022/07/01 04:11:52;;;;;;;;;;;;;;;;;;5074777;28;19986;-68
2022/07/01 04:14:18;;;;;;;;;;;;;;;;;;5074309;28;19925;-68
2022/07/01 04:16:43;;;;;;;;;;;;;;;;;;5074823;28;19921;-68
2022/07/01 04:19:09;;;;;;;;;;;;;;;;;;5074836;28;19951;-68
2022/07/01 04:24:22;;;;;;;;;;;;;;;;;;5074618;28;20019;-68
2022/07/01 04:26:48;;;;;;;;;;;;;;;;;;5088684;28;19963;-68
2022/07/01 04:29:14;;;;;;;;;;;;;;;;;;5093918;28;19966;-68
2022/07/01 04:31:40;;;;;;;;;;;;;;;;;;5094542;28;19978;-68
2022/07/01 04:34:06;;;;;;;;;;;;;;;;;;5094533;28;19967;-68
2022/07/01 04:36:32;;;;;;;;;;;;;;;;;;5093990;28;20039;-68
2022/07/01 04:38:58;;;;;;;;;;;;;;;;;;5094445;28;19920;-68
2022/07/01 04:44:09;;;;;;;;;;;;;;;;;;5093484;28;20332;-68
2022/07/01 04:46:34;;;;;;;;;;;;;;;;;;5094295;28;19935;-68
2022/07/01 04:49:00;;;;;;;;;;;;;;;;;;5094405;28;19979;-68
2022/07/01 04:51:26;;;;;;;;;;;;;;;;;;5093254;28;19984;-68
2022/07/01 04:53:53;;;;;;;;;;;;;;;;;;5094581;28;20432;-68
2022/07/01 04:56:19;;;;;;;;;;;;;;;;;;5094224;28;19945;-68
2022/07/01 04:58:45;;;;;;;;;;;;;;;;;;5093509;28;19924;-68
2022/07/01 05:01:11;;;;;;;;;;;;;;;;;;5094025;28;19920;-68
2022/07/01 05:03:38;;;;;;;;;;;;;;;;;;5093902;28;19920;-68
2022/07/01 05:06:04;;;;;;;;;;;;;;;;;;5093608;28;19921;-68
2022/07/01 05:08:30;;;;;;;;;;;;;;;;;;5094005;28;19930;-68
2022/07/01 05:10:57;;;;;;;;;;;;;;;;;;5093833;28;19962;-68
2022/07/01 05:13:23;;;;;;;;;;;;;;;;;;5093007;28;19920;-68
2022/07/01 05:15:49;;;;;;;;;;;;;;;;;;5094026;28;19927;-68
2022/07/01 05:23:45;;;;;;;;;;;;;;;;;;5093824;28;20287;-68
2022/07/01 05:26:16;;;;;;;;;;;;;;;;;;5084669;28;20438;-68
2022/07/01 05:28:41;;;;;;;;;;;;;;;;;;5071576;28;19949;-68
2022/07/01 05:31:07;;;;;;;;;;;;;;;;;;5073300;28;20010;-68
2022/07/01 05:33:33;;;;;;;;;;;;;;;;;;5073410;28;19921;-68
2022/07/01 05:35:59;;;;;;;;;;;;;;;;;;5072826;28;19927;-68
2022/07/01 05:38:25;;;;;;;;;;;;;;;;;;5073478;28;19927;-68
2022/07/01 05:40:52;;;;;;;;;;;;;;;;;;5071565;28;19924;-68
2022/07/01 05:43:18;;;;;;;;;;;;;;;;;;5072381;28;19928;-68
2022/07/01 05:45:44;;;;;;;;;;;;;;;;;;5073259;28;19974;-68
2022/07/01 05:48:10;;;;;;;;;;;;;;;;;;5073224;28;19939;-68
2022/07/01 05:50:36;;;;;;;;;;;;;;;;;;5070642;28;19943;-68
2022/07/01 05:53:02;;;;;;;;;;;;;;;;;;5073073;28;19920;-68
2022/07/01 05:55:28;;;;;;;;;;;;;;;;;;5073212;28;19928;-68
2022/07/01 05:57:54;;;;;;;;;;;;;;;;;;5072367;28;19946;-68
2022/07/01 06:00:20;;;;;;;;;;;;;;;;;;5072587;28;19928;-68
2022/07/01 06:02:47;;;;;;;;;;;;;;;;;;5072644;28;19924;-68
2022/07/01 06:05:13;;;;;;;;;;;;;;;;;;5071964;28;19920;-68
2022/07/01 06:07:40;;;;;;;;;;;;;;;;;;5072885;28;19950;-68
2022/07/01 06:10:06;;;;;;;;;;;;;;;;;;5072663;28;19920;-68
2022/07/01 06:12:32;;;;;;;;;;;;;;;;;;5070892;28;19928;-68
2022/07/01 06:14:58;;;;;;;;;;;;;;;;;;5090481;28;19942;-68
2022/07/01 06:17:24;;;;;;;;;;;;;;;;;;5092167;28;20010;-68
2022/07/01 06:19:49;;;;;;;;;;;;;;;;;;5091652;28;19989;-68
2022/07/01 06:22:18;;;;;;;;;;;;;;;;;;5092074;28;19933;-68
2022/07/01 06:24:44;;;;;;;;;;;;;;;;;;5090750;28;19926;-68
2022/07/01 06:27:10;;;;;;;;;;;;;;;;;;5091473;28;20041;-69
2022/07/01 06:29:36;;;;;;;;;;;;;;;;;;5089728;28;20374;-68
2022/07/01 06:32:02;;;;;;;;;;;;;;;;;;5091109;28;19971;-68
2022/07/01 06:34:29;;;;;;;;;;;;;;;;;;5090082;28;19920;-70
2022/07/01 06:36:55;;;;;;;;;;;;;;;;;;5094442;28;19921;-70
2022/07/01 06:39:21;;;;;;;;;;;;;;;;;;5090630;28;19934;-72
2022/07/01 06:41:47;;;;;;;;;;;;;;;;;;5089400;28;19924;-70
2022/07/01 06:44:13;;;;;;;;;;;;;;;;;;5091005;28;20373;-69
2022/07/01 06:46:39;;;;;;;;;;;;;;;;;;5090938;28;19935;-70
2022/07/01 06:49:05;;;;;;;;;;;;;;;;;;5095200;28;20030;-71
2022/07/01 06:51:31;;;;;;;;;;;;;;;;;;5091910;28;19928;-70
2022/07/01 06:53:57;;;;;;;;;;;;;;;;;;5094268;28;19990;-70
2022/07/01 06:56:23;;;;;;;;;;;;;;;;;;5088725;28;19926;-69
2022/07/01 06:58:49;;;;;;;;;;;;;;;;;;5110541;28;19920;-68
2022/07/01 07:01:15;;;;;;;;;;;;;;;;;;5093514;28;19977;-70
2022/07/01 07:03:41;;;;;;;;;;;;;;;;;;5089069;28;19992;-68
2022/07/01 07:06:08;;;;;;;;;;;;;;;;;;5090537;28;19927;-69
2022/07/01 07:08:34;;;;;;;;;;;;;;;;;;5091486;28;20266;-69
2022/07/01 07:11:00;;;;;;;;;;;;;;;;;;5090828;28;19920;-69
2022/07/01 07:13:26;;;;;;;;;;;;;;;;;;5091058;28;20267;-68
2022/07/01 07:15:52;;;;;;;;;;;;;;;;;;5089748;28;19927;-70
2022/07/01 07:18:18;;;;;;;;;;;;;;;;;;5106467;28;19984;-70
2022/07/01 07:20:43;;;;;;;;;;;;;;;;;;5104405;28;19924;-68
2022/07/01 07:23:09;;;;;;;;;;;;;;;;;;5091073;28;19920;-67
2022/07/01 07:25:35;;;;;;;;;;;;;;;;;;5090550;28;19924;-67
2022/07/01 07:28:01;;;;;;;;;;;;;;;;;;5090583;28;20011;-67
2022/07/01 07:30:27;;;;;;;;;;;;;;;;;;5108305;28;19924;-68
2022/07/01 07:32:53;;;;;;;;;;;;;;;;;;5093542;28;19947;-66
2022/07/01 07:35:19;;;;;;;;;;;;;;;;;;5092218;28;20044;-67
2022/07/01 07:37:45;;;;;;;;;;;;;;;;;;5093059;28;20006;-67
2022/07/01 07:40:12;;;;;;;;;;;;;;;;;;5094356;28;19924;-67
2022/07/01 07:42:38;;;;;;;;;;;;;;;;;;5112585;28;19919;-67
2022/07/01 07:45:06;;;;;;;;;;;;;;;;;;5104514;28;19927;-67
2022/07/01 07:47:32;;;;;;;;;;;;;;;;;;5093882;28;20374;-66
2022/07/01 07:49:58;;;;;;;;;;;;;;;;;;5094616;28;19927;-67
2022/07/01 07:52:24;;;;;;;;;;;;;;;;;;5097683;28;19920;-67
2022/07/01 07:54:50;;;;;;;;;;;;;;;;;;5093482;28;19966;-66
2022/07/01 07:57:16;;;;;;;;;;;;;;;;;;5099970;28;20413;-67
2022/07/01 07:59:42;;;;;;;;;;;;;;;;;;5114824;28;20616;-67
2022/07/01 08:02:08;;;;;;;;;;;;;;;;;;5091594;28;19921;-68
2022/07/01 08:04:33;;;;;;;;;;;;;;;;;;5081817;28;19922;-67
2022/07/01 08:06:59;;;;;;;;;;;;;;;;;;5093743;28;19941;-66
2022/07/01 08:09:25;;;;;;;;;;;;;;;;;;5093516;28;19931;-66
2022/07/01 08:11:51;;;;;;;;;;;;;;;;;;5092948;28;19924;-69
2022/07/01 08:14:17;;;;;;;;;;;;;;;;;;5091128;28;19973;-68
2022/07/01 08:16:43;;;;;;;;;;;;;;;;;;5093168;28;19998;-67
2022/07/01 08:19:09;;;;;;;;;;;;;;;;;;5093395;28;20010;-66
2022/07/01 08:21:36;;;;;;;;;;;;;;;;;;5090367;28;19920;-68
2022/07/01 08:24:02;;;;;;;;;;;;;;;;;;5095272;28;19951;-68
2022/07/01 08:26:28;;;;;;;;;;;;;;;;;;5092661;28;19920;-68
2022/07/01 08:28:54;;;;;;;;;;;;;;;;;;5101986;28;19941;-69
2022/07/01 08:31:20;;;;;;;;;;;;;;;;;;5098006;28;19921;-68
2022/07/01 08:33:47;;;;;;;;;;;;;;;;;;5095318;28;19927;-68
2022/07/01 08:36:13;;;;;;;;;;;;;;;;;;5094583;28;19931;-68
2022/07/01 08:38:39;;;;;;;;;;;;;;;;;;5095502;28;19927;-69
2022/07/01 08:41:05;;;;;;;;;;;;;;;;;;5095871;28;20379;-68
2022/07/01 08:43:31;;;;;;;;;;;;;;;;;;5093773;28;19934;-68
2022/07/01 08:45:57;;;;;;;;;;;;;;;;;;5094851;28;19920;-68
2022/07/01 08:48:23;;;;;;;;;;;;;;;;;;5094853;28;20425;-67
2022/07/01 08:50:49;;;;;;;;;;;;;;;;;;5099387;28;19957;-67
2022/07/01 08:53:15;;;;;;;;;;;;;;;;;;5094804;28;19920;-68
2022/07/01 08:58:27;;;;;;;;;;;;;;;;;;5101848;28;20610;-67
2022/07/01 09:00:53;;;;;;;;;;;;;;;;;;5107891;28;19932;-67
2022/07/01 09:03:21;;;;;;;;;;;;;;;;;;5107018;28;20521;-68
2022/07/01 09:05:47;;;;;;;;;;;;;;;;;;5111677;28;19919;-68
2022/07/01 09:08:12;;;;;;;;;;;;;;;;;;5093251;28;19973;-67
2022/07/01 09:10:38;;;;;;;;;;;;;;;;;;5091920;28;19924;-68
2022/07/01 09:13:05;;;;;;;;;;;;;;;;;;5100067;28;20355;-67
2022/07/01 09:15:31;;;;;;;;;;;;;;;;;;5094014;27;19982;-67
2022/07/01 09:17:57;;;;;;;;;;;;;;;;;;5093288;28;19920;-67
2022/07/01 09:20:23;;;;;;;;;;;;;;;;;;5093602;28;19924;-66
2022/07/01 09:22:49;;;;;;;;;;;;;;;;;;5093955;28;20401;-66
2022/07/01 09:25:15;;;;;;;;;;;;;;;;;;5090012;28;20285;-68
2022/07/01 09:27:41;;;;;;;;;;;;;;;;;;5090463;28;19979;-67
2022/07/01 09:30:07;;;;;;;;;;;;;;;;;;5087827;28;19927;-68
2022/07/01 09:32:34;;;;;;;;;;;;;;;;;;5110788;28;19923;-68
2022/07/01 09:35:00;;;;;;;;;;;;;;;;;;5104831;28;19993;-67
2022/07/01 09:37:29;;;;;;;;;;;;;;;;;;5106449;28;19920;-68
2022/07/01 09:39:56;;;;;;;;;;;;;;;;;;5091418;28;19924;-67
2022/07/01 09:42:22;;;;;;;;;;;;;;;;;;5092287;28;20013;-68
2022/07/01 09:44:48;;;;;;;;;;;;;;;;;;5090680;28;20327;-68
2022/07/01 09:47:14;;;;;;;;;;;;;;;;;;5090974;28;19924;-67
2022/07/01 09:49:41;;;;;;;;;;;;;;;;;;5103041;28;19967;-68
2022/07/01 09:52:07;;;;;;;;;;;;;;;;;;5091753;28;19920;-67
2022/07/01 09:54:33;;;;;;;;;;;;;;;;;;5091547;28;19981;-66
2022/07/01 09:57:00;;;;;;;;;;;;;;;;;;5094181;28;20004;-67
2022/07/01 09:59:27;;;;;;;;;;;;;;;;;;5092969;28;19925;-68
2022/07/01 10:01:53;;;;;;;;;;;;;;;;;;5094990;28;19977;-67
2022/07/01 10:04:19;;;;;;;;;;;;;;;;;;5098169;28;19920;-67
2022/07/01 10:06:45;;;;;;;;;;;;;;;;;;5091628;28;19946;-67
2022/07/01 10:09:11;;;;;;;;;;;;;;;;;;5091400;28;20396;-67
2022/07/01 10:11:38;;;;;;;;;;;;;;;;;;5089863;28;20002;-69
2022/07/01 10:14:04;;;;;;;;;;;;;;;;;;5096493;28;20339;-67
2022/07/01 10:16:30;;;;;;;;;;;;;;;;;;5111777;28;19923;-67
2022/07/01 10:18:56;;;;;;;;;;;;;;;;;;5093558;28;19920;-67
2022/07/01 10:21:22;;;;;;;;;;;;;;;;;;5091724;28;19920;-67
2022/07/01 10:23:50;;;;;;;;;;;;;;;;;;5093213;28;19964;-66
2022/07/01 10:26:16;;;;;;;;;;;;;;;;;;5091596;28;20333;-67
2022/07/01 10:28:43;;;;;;;;;;;;;;;;;;5091939;28;19977;-67
2022/07/01 10:31:13;;;;;;;;;;;;;;;;;;5092121;28;19920;-69
2022/07/01 10:33:39;;;;;;;;;;;;;;;;;;5091446;28;19927;-70
2022/07/01 10:36:05;;;;;;;;;;;;;;;;;;5089396;28;19945;-68
2022/07/01 10:38:31;;;;;;;;;;;;;;;;;;5090721;28;20006;-68
2022/07/01 10:41:09;;;;;;;;;;;;;;;;;;5090929;28;19924;-68
2022/07/01 10:43:35;;;;;;;;;;;;;;;;;;5091631;28;19924;-68
2022/07/01 10:46:01;;;;;;;;;;;;;;;;;;5087203;28;19924;-68
2022/07/01 10:48:27;;;;;;;;;;;;;;;;;;5080139;28;19990;-68
2022/07/01 10:50:53;;;;;;;;;;;;;;;;;;5091942;28;19928;-68
2022/07/01 10:53:18;;;;;;;;;;;;;;;;;;5091290;28;19932;-68
2022/07/01 10:55:45;;;;;;;;;;;;;;;;;;5091428;28;19920;-68
2022/07/01 10:58:11;;;;;;;;;;;;;;;;;;5092127;28;19927;-68
2022/07/01 11:00:37;;;;;;;;;;;;;;;;;;5091191;28;20454;-68
2022/07/01 11:03:03;;;;;;;;;;;;;;;;;;5092122;28;19924;-68
2022/07/01 11:05:29;;;;;;;;;;;;;;;;;;5092060;28;19969;-68
2022/07/01 11:07:55;;;;;;;;;;;;;;;;;;5091440;28;19924;-68
2022/07/01 11:10:21;;;;;;;;;;;;;;;;;;5092994;28;19924;-68
2022/07/01 11:12:49;;;;;;;;;;;;;;;;;;5096249;28;19969;-68
2022/07/01 11:15:15;;;;;;;;;;;;;;;;;;5095293;28;19920;-68
2022/07/01 11:17:41;;;;;;;;;;;;;;;;;;5096236;28;19924;-69
2022/07/01 11:20:07;;;;;;;;;;;;;;;;;;5095933;28;19924;-68
2022/07/01 11:22:33;;;;;;;;;;;;;;;;;;5095386;28;19928;-68
2022/07/01 11:24:59;;;;;;;;;;;;;;;;;;5096141;28;19943;-68
2022/07/01 11:27:25;;;;;;;;;;;;;;;;;;5076812;28;19970;-68
2022/07/01 11:29:51;;;;;;;;;;;;;;;;;;5075064;28;20050;-68
2022/07/01 11:32:17;;;;;;;;;;;;;;;;;;5075344;28;19920;-68
2022/07/01 11:34:43;;;;;;;;;;;;;;;;;;5075367;28;19920;-68
2022/07/01 11:39:53;;;;;;;;;;;;;;;;;;5075306;28;20387;-68
2022/07/01 11:42:21;;;;;;;;;;;;;;;;;;5075312;28;19956;-69
2022/07/01 11:44:46;;;;;;;;;;;;;;;;;;5074304;28;19925;-69
2022/07/01 11:47:12;;;;;;;;;;;;;;;;;;5075269;28;19931;-69
2022/07/01 11:49:38;;;;;;;;;;;;;;;;;;5075257;28;19921;-68
2022/07/01 11:52:05;;;;;;;;;;;;;;;;;;5074312;28;20348;-68
2022/07/01 11:54:31;;;;;;;;;;;;;;;;;;5087109;28;19962;-68
2022/07/01 11:56:57;;;;;;;;;;;;;;;;;;5094843;28;19919;-68
2022/07/01 11:59:22;;;;;;;;;;;;;;;;;;5096049;28;19968;-68
2022/07/01 12:01:48;;;;;;;;;;;;;;;;;;5088702;28;20544;-69
2022/07/01 12:04:14;;;;;;;;;;;;;;;;;;5093994;28;19920;-69
2022/07/01 12:06:42;;;;;;;;;;;;;;;;;;5093764;28;20049;-69
2022/07/01 12:09:08;;;;;;;;;;;;;;;;;;5095060;28;20010;-68
2022/07/01 12:11:34;;;;;;;;;;;;;;;;;;5094741;28;20014;-68
2022/07/01 12:14:00;;;;;;;;;;;;;;;;;;5093729;28;19927;-68
2022/07/01 12:16:26;;;;;;;;;;;;;;;;;;5093812;28;19920;-68
2022/07/01 12:18:52;;;;;;;;;;;;;;;;;;5094935;28;19927;-69
2022/07/01 12:21:18;;;;;;;;;;;;;;;;;;5093259;28;19925;-69
2022/07/01 12:23:44;;;;;;;;;;;;;;;;;;5094393;28;19920;-67
2022/07/01 12:26:10;;;;;;;;;;;;;;;;;;5094830;28;19954;-66
2022/07/01 12:28:36;;;;;;;;;;;;;;;;;;5093666;28;19920;-66
2022/07/01 12:31:02;;;;;;;;;;;;;;;;;;5094108;28;19920;-66
2022/07/01 12:33:28;;;;;;;;;;;;;;;;;;5094668;28;20007;-66
2022/07/01 12:35:54;;;;;;;;;;;;;;;;;;5094074;28;19920;-66
2022/07/01 12:38:20;;;;;;;;;;;;;;;;;;5086867;28;19920;-66
2022/07/01 12:40:46;;;;;;;;;;;;;;;;;;5094034;28;19989;-66
2022/07/01 12:43:12;;;;;;;;;;;;;;;;;;5093991;28;19924;-66
2022/07/01 12:45:38;;;;;;;;;;;;;;;;;;5093183;28;19920;-66
2022/07/01 12:48:04;;;;;;;;;;;;;;;;;;5093807;28;19920;-66
2022/07/01 12:50:33;;;;;;;;;;;;;;;;;;5093750;28;19989;-67
2022/07/01 12:52:59;;;;;;;;;;;;;;;;;;5092071;28;19927;-66
2022/07/01 12:55:25;;;;;;;;;;;;;;;;;;5093637;28;19920;-66
2022/07/01 12:57:51;;;;;;;;;;;;;;;;;;5093372;28;19924;-66
2022/07/01 13:00:17;;;;;;;;;;;;;;;;;;5093264;28;19931;-66
2022/07/01 13:02:43;;;;;;;;;;;;;;;;;;5093977;28;19943;-68
2022/07/01 13:05:09;;;;;;;;;;;;;;;;;;5093941;28;19923;-67
2022/07/01 13:07:35;;;;;;;;;;;;;;;;;;5092205;28;20012;-67
2022/07/01 13:10:01;;;;;;;;;;;;;;;;;;5094127;28;19981;-67
2022/07/01 13:12:26;;;;;;;;;;;;;;;;;;5091281;28;19920;-67
2022/07/01 13:14:52;;;;;;;;;;;;;;;;;;5090847;28;20019;-67
2022/07/01 13:17:20;;;;;;;;;;;;;;;;;;5092280;28;19990;-66
2022/07/01 13:19:47;;;;;;;;;;;;;;;;;;5093640;28;20019;-66
2022/07/01 13:22:13;;;;;;;;;;;;;;;;;;5092995;28;19926;-67
2022/07/01 13:24:39;;;;;;;;;;;;;;;;;;5092196;28;19920;-66
2022/07/01 13:27:05;;;;;;;;;;;;;;;;;;5092313;28;19920;-66
2022/07/01 13:29:31;;;;;;;;;;;;;;;;;;5092789;28;19928;-66
2022/07/01 13:31:57;;;;;;;;;;;;;;;;;;5093128;28;19934;-66
2022/07/01 13:34:23;;;;;;;;;;;;;;;;;;5092339;28;19924;-68
2022/07/01 13:36:48;;;;;;;;;;;;;;;;;;5090821;28;19920;-68
2022/07/01 13:39:14;;;;;;;;;;;;;;;;;;5093079;28;20006;-68
2022/07/01 13:41:40;;;;;;;;;;;;;;;;;;5093038;28;19955;-68
2022/07/01 13:44:06;;;;;;;;;;;;;;;;;;5092194;28;19924;-68
2022/07/01 13:46:32;;;;;;;;;;;;;;;;;;5092813;28;19924;-68
2022/07/01 13:48:58;;;;;;;;;;;;;;;;;;5093209;28;19920;-68
2022/07/01 13:51:24;;;;;;;;;;;;;;;;;;5092301;28;19977;-68
2022/07/01 13:53:50;;;;;;;;;;;;;;;;;;5093267;28;19919;-68
2022/07/01 13:56:16;;;;;;;;;;;;;;;;;;5092639;28;20602;-68
2022/07/01 13:58:42;;;;;;;;;;;;;;;;;;5092422;28;20192;-68
2022/07/01 14:01:08;;;;;;;;;;;;;;;;;;5092739;28;19946;-68
2022/07/01 14:03:35;;;;;;;;;;;;;;;;;;5091159;28;19928;-68
2022/07/01 14:06:01;;;;;;;;;;;;;;;;;;5092276;28;20019;-68
2022/07/01 14:08:27;;;;;;;;;;;;;;;;;;5092369;28;19995;-68
2022/07/01 14:10:53;;;;;;;;;;;;;;;;;;5092350;28;19977;-68
2022/07/01 14:13:21;;;;;;;;;;;;;;;;;;5092034;28;20522;-68
2022/07/01 14:15:47;;;;;;;;;;;;;;;;;;5092532;28;19924;-68
2022/07/01 14:18:13;;;;;;;;;;;;;;;;;;5091895;28;20010;-68
2022/07/01 14:20:39;;;;;;;;;;;;;;;;;;5091848;28;20011;-68
2022/07/01 14:23:05;;;;;;;;;;;;;;;;;;5092495;28;19923;-68
2022/07/01 14:25:31;;;;;;;;;;;;;;;;;;5092433;28;19928;-68
2022/07/01 14:27:57;;;;;;;;;;;;;;;;;;5090952;28;19920;-68
2022/07/01 14:30:23;;;;;;;;;;;;;;;;;;5090090;28;19989;-68
2022/07/01 14:32:49;;;;;;;;;;;;;;;;;;5092115;28;20284;-68
2022/07/01 14:35:14;;;;;;;;;;;;;;;;;;5091683;28;19924;-68
2022/07/01 14:37:43;;;;;;;;;;;;;;;;;;5091277;28;19927;-68
2022/07/01 14:40:09;;;;;;;;;;;;;;;;;;5092396;28;19931;-68
2022/07/01 14:42:34;;;;;;;;;;;;;;;;;;5091384;28;19920;-68
2022/07/01 14:45:00;;;;;;;;;;;;;;;;;;5091552;28;19931;-68
2022/07/01 14:47:27;;;;;;;;;;;;;;;;;;5092288;28;20357;-68
2022/07/01 14:49:53;;;;;;;;;;;;;;;;;;5091661;28;20311;-68
2022/07/01 14:52:19;;;;;;;;;;;;;;;;;;5092219;28;20381;-68
2022/07/01 14:54:45;;;;;;;;;;;;;;;;;;5092211;28;19920;-68
2022/07/01 14:57:11;;;;;;;;;;;;;;;;;;5091323;28;19931;-68
2022/07/01 14:59:37;;;;;;;;;;;;;;;;;;5090589;28;19962;-68
2022/07/01 15:02:03;;;;;;;;;;;;;;;;;;5091902;28;19928;-68
2022/07/01 15:04:29;;;;;;;;;;;;;;;;;;5091382;28;20642;-68
2022/07/01 15:06:55;;;;;;;;;;;;;;;;;;5092101;28;19920;-68
2022/07/01 15:09:21;;;;;;;;;;;;;;;;;;5092230;28;20255;-68
2022/07/01 15:11:47;;;;;;;;;;;;;;;;;;5091021;28;19934;-68
2022/07/01 15:14:13;;;;;;;;;;;;;;;;;;5092116;28;19941;-68
2022/07/01 15:16:39;;;;;;;;;;;;;;;;;;5092097;28;19927;-68
2022/07/01 15:19:05;;;;;;;;;;;;;;;;;;5091254;28;19920;-68
2022/07/01 15:21:31;;;;;;;;;;;;;;;;;;5091648;28;19928;-68
2022/07/01 15:23:57;;;;;;;;;;;;;;;;;;5091790;28;20255;-68
2022/07/01 15:26:23;;;;;;;;;;;;;;;;;;5090774;28;19955;-68
2022/07/01 15:28:49;;;;;;;;;;;;;;;;;;5091999;28;19927;-68
2022/07/01 15:31:15;;;;;;;;;;;;;;;;;;5091474;28;19921;-68
2022/07/01 15:33:41;;;;;;;;;;;;;;;;;;5091548;28;19931;-68
2022/07/01 15:36:07;;;;;;;;;;;;;;;;;;5091566;28;19995;-68
2022/07/01 15:38:33;;;;;;;;;;;;;;;;;;5091761;28;19923;-68
2022/07/01 15:40:59;;;;;;;;;;;;;;;;;;5091635;28;19957;-69
2022/07/01 15:43:25;;;;;;;;;;;;;;;;;;5090714;28;19946;-68
2022/07/01 15:45:51;;;;;;;;;;;;;;;;;;5090097;28;19924;-68
2022/07/01 15:48:17;;;;;;;;;;;;;;;;;;5091602;28;19920;-68
2022/07/01 15:50:43;;;;;;;;;;;;;;;;;;5090972;28;19942;-68
2022/07/01 15:53:09;;;;;;;;;;;;;;;;;;5091701;28;19927;-68
2022/07/01 15:55:37;;;;;;;;;;;;;;;;;;5091788;28;19967;-68
2022/07/01 15:58:03;;;;;;;;;;;;;;;;;;5093459;28;19920;-68
2022/07/01 16:00:30;;;;;;;;;;;;;;;;;;5095279;28;20290;-68
2022/07/01 16:02:56;;;;;;;;;;;;;;;;;;5095287;28;19969;-68
2022/07/01 16:05:22;;;;;;;;;;;;;;;;;;5094580;28;19924;-68
2022/07/01 16:07:50;;;;;;;;;;;;;;;;;;5095350;28;19927;-68
2022/07/01 16:10:16;;;;;;;;;;;;;;;;;;5094035;28;19942;-68
2022/07/01 16:12:42;;;;;;;;;;;;;;;;;;5094370;28;19924;-68
2022/07/01 16:15:08;;;;;;;;;;;;;;;;;;5095135;28;19943;-68
2022/07/01 16:17:34;;;;;;;;;;;;;;;;;;5094923;28;19920;-68
2022/07/01 16:20:00;;;;;;;;;;;;;;;;;;5094429;28;19925;-68
2022/07/01 16:22:26;;;;;;;;;;;;;;;;;;5094999;28;19989;-68
2022/07/01 16:24:52;;;;;;;;;;;;;;;;;;5094986;28;19972;-69
2022/07/01 16:27:20;;;;;;;;;;;;;;;;;;5076306;28;20003;-68
2022/07/01 16:29:46;;;;;;;;;;;;;;;;;;5074320;28;19927;-68
2022/07/01 16:32:12;;;;;;;;;;;;;;;;;;5074388;28;19924;-68
2022/07/01 16:34:38;;;;;;;;;;;;;;;;;;5073903;28;19998;-68
2022/07/01 16:37:04;;;;;;;;;;;;;;;;;;5074436;28;19921;-68
2022/07/01 16:39:30;;;;;;;;;;;;;;;;;;5074575;28;19968;-68
2022/07/01 16:41:56;;;;;;;;;;;;;;;;;;5073490;28;19921;-68
2022/07/01 16:44:22;;;;;;;;;;;;;;;;;;5074292;28;19992;-68
2022/07/01 16:46:48;;;;;;;;;;;;;;;;;;5074598;28;19921;-68
2022/07/01 16:49:14;;;;;;;;;;;;;;;;;;5072439;28;20414;-68
2022/07/01 16:51:40;;;;;;;;;;;;;;;;;;5074082;28;19924;-68
2022/07/01 16:54:07;;;;;;;;;;;;;;;;;;5074292;28;19920;-68